createdAt,value
2018-12-29T00:00:55.343Z,31.10
2018-12-29T00:03:24.635Z,33.73
2018-12-29T00:05:53.947Z,33.97
2018-12-29T00:08:23.230Z,34.53
2018-12-29T00:10:52.537Z,32.77
2018-12-29T00:13:21.828Z,32.20
2018-12-29T00:15:51.074Z,32.33
2018-12-29T00:18:20.411Z,33.63
2018-12-29T00:20:49.679Z,32.77
2018-12-29T00:23:19.065Z,33.10
2018-12-29T00:25:48.332Z,34.57
2018-12-29T00:28:17.651Z,32.47
2018-12-29T00:30:46.859Z,32.03
2018-12-29T00:33:16.164Z,31.33
2018-12-29T00:35:45.406Z,30.73
2018-12-29T00:38:14.711Z,30.77
2018-12-29T00:40:44.179Z,31.57
2018-12-29T00:43:13.526Z,32.20
2018-12-29T00:45:42.888Z,31.63
2018-12-29T00:48:12.178Z,31.43
2018-12-29T00:50:41.517Z,31.30
2018-12-29T00:53:10.818Z,31.17
2018-12-29T00:55:40.088Z,30.47
2018-12-29T00:58:09.337Z,29.97
2018-12-29T01:00:38.608Z,30.63
2018-12-29T01:03:07.889Z,29.40
2018-12-29T01:05:37.192Z,28.50
2018-12-29T01:08:06.433Z,30.47
2018-12-29T01:10:35.676Z,29.67
2018-12-29T01:13:04.955Z,27.67
2018-12-29T01:15:34.202Z,29.50
2018-12-29T01:18:03.608Z,26.87
2018-12-29T01:20:32.938Z,28.90
2018-12-29T01:23:02.218Z,26.40
2018-12-29T01:25:31.504Z,27.13
2018-12-29T01:28:00.821Z,28.70
2018-12-29T01:30:30.094Z,27.77
2018-12-29T01:32:59.382Z,28.00
2018-12-29T01:35:28.624Z,27.13
2018-12-29T01:37:57.896Z,26.80
2018-12-29T01:40:27.167Z,26.87
2018-12-29T01:42:56.428Z,27.13
2018-12-29T01:45:25.732Z,27.40
2018-12-29T01:47:55.029Z,27.00
2018-12-29T01:50:24.328Z,27.73
2018-12-29T01:52:53.598Z,28.87
2018-12-29T01:55:22.892Z,28.00
2018-12-29T01:57:52.140Z,27.03
2018-12-29T02:00:21.426Z,28.13
2018-12-29T02:02:50.683Z,27.27
2018-12-29T02:05:19.962Z,28.73
2018-12-29T02:07:49.211Z,28.60
2018-12-29T02:10:18.492Z,29.83
2018-12-29T02:12:47.764Z,27.60
2018-12-29T02:15:17.106Z,30.20
2018-12-29T02:17:46.383Z,28.50
2018-12-29T02:20:15.633Z,29.70
2018-12-29T02:22:44.999Z,30.97
2018-12-29T02:25:14.284Z,30.23
2018-12-29T02:27:43.578Z,31.00
2018-12-29T02:30:12.897Z,30.30
2018-12-29T02:32:42.237Z,30.57
2018-12-29T02:35:11.617Z,31.77
2018-12-29T02:37:40.936Z,32.53
2018-12-29T02:40:10.299Z,33.53
2018-12-29T02:42:39.602Z,31.73
2018-12-29T02:45:08.844Z,30.57
2018-12-29T02:47:38.099Z,30.70
2018-12-29T02:50:07.384Z,31.23
2018-12-29T02:52:36.657Z,31.40
2018-12-29T02:55:05.962Z,31.77
2018-12-29T02:57:35.267Z,31.60
2018-12-29T03:00:04.560Z,31.47
2018-12-29T03:02:33.808Z,31.40
2018-12-29T03:05:03.113Z,31.87
2018-12-29T03:07:32.362Z,30.83
2018-12-29T03:10:01.669Z,32.03
2018-12-29T03:12:30.902Z,31.23
2018-12-29T03:15:00.286Z,32.23
2018-12-29T03:17:29.598Z,31.70
2018-12-29T03:19:58.884Z,31.77
2018-12-29T03:22:28.236Z,31.33
2018-12-29T03:24:57.611Z,30.00
2018-12-29T03:27:26.931Z,30.90
2018-12-29T03:29:56.212Z,28.77
2018-12-29T03:32:25.548Z,29.67
2018-12-29T03:34:54.924Z,30.10
2018-12-29T03:37:24.206Z,29.30
2018-12-29T03:39:53.678Z,29.23
2018-12-29T03:42:22.945Z,28.07
2018-12-29T03:44:52.183Z,28.23
2018-12-29T03:47:21.440Z,28.90
2018-12-29T03:49:50.678Z,28.63
2018-12-29T03:52:19.924Z,28.13
2018-12-29T03:54:49.186Z,27.17
2018-12-29T03:57:18.416Z,27.07
2018-12-29T03:59:47.688Z,28.17
2018-12-29T04:02:16.913Z,28.40
2018-12-29T04:04:46.268Z,27.33
2018-12-29T04:07:15.654Z,26.40
2018-12-29T04:09:45.059Z,27.37
2018-12-29T04:12:19.668Z,26.93
2018-12-29T04:14:48.986Z,25.20
2018-12-29T04:17:18.258Z,25.60
2018-12-29T04:19:47.582Z,26.00
2018-12-29T04:22:16.870Z,27.10
2018-12-29T04:24:46.192Z,24.77
2018-12-29T04:27:15.572Z,25.17
2018-12-29T04:29:44.968Z,26.60
2018-12-29T04:32:14.304Z,23.57
2018-12-29T04:34:43.577Z,23.60
2018-12-29T04:37:12.898Z,24.30
2018-12-29T04:39:42.171Z,24.30
2018-12-29T04:42:11.443Z,23.60
2018-12-29T04:44:40.791Z,23.93
2018-12-29T04:47:10.075Z,24.93
2018-12-29T04:49:39.309Z,24.57
2018-12-29T04:52:08.591Z,25.53
2018-12-29T04:54:37.884Z,23.57
2018-12-29T04:57:07.124Z,23.20
2018-12-29T04:59:36.380Z,22.50
2018-12-29T05:02:05.640Z,24.70
2018-12-29T05:04:34.923Z,23.67
2018-12-29T05:07:04.190Z,23.83
2018-12-29T05:09:33.459Z,23.80
2018-12-29T05:12:02.717Z,23.50
2018-12-29T05:14:31.972Z,23.33
2018-12-29T05:17:01.283Z,24.63
2018-12-29T05:19:30.568Z,23.73
2018-12-29T05:21:59.818Z,24.13
2018-12-29T05:24:29.064Z,23.90
2018-12-29T05:26:58.365Z,23.07
2018-12-29T05:29:27.623Z,24.40
2018-12-29T05:31:56.886Z,23.80
2018-12-29T05:34:26.174Z,24.27
2018-12-29T05:36:55.457Z,24.83
2018-12-29T05:39:24.727Z,24.50
2018-12-29T05:41:53.981Z,23.73
2018-12-29T05:44:25.685Z,24.40
2018-12-29T05:46:52.501Z,23.67
2018-12-29T05:49:21.735Z,23.90
2018-12-29T05:51:52.123Z,24.60
2018-12-29T05:54:21.311Z,22.50
2018-12-29T05:56:50.521Z,21.70
2018-12-29T05:59:19.777Z,22.30
2018-12-29T06:01:49.012Z,21.67
2018-12-29T06:04:18.273Z,20.87
2018-12-29T06:06:47.611Z,21.23
2018-12-29T06:09:16.887Z,21.00
2018-12-29T06:11:46.163Z,19.50
2018-12-29T06:14:15.399Z,20.63
2018-12-29T06:16:44.659Z,20.27
2018-12-29T06:19:14.007Z,18.40
2018-12-29T06:21:43.270Z,18.90
2018-12-29T06:24:12.608Z,19.17
2018-12-29T06:26:41.879Z,19.37
2018-12-29T06:29:11.124Z,19.23
2018-12-29T06:31:40.434Z,19.07
2018-12-29T06:34:09.646Z,20.13
2018-12-29T06:36:38.975Z,18.63
2018-12-29T06:39:08.515Z,19.17
2018-12-29T06:41:37.785Z,19.27
2018-12-29T06:44:07.047Z,19.73
2018-12-29T06:46:36.291Z,18.73
2018-12-29T06:49:05.565Z,19.27
2018-12-29T06:51:34.807Z,19.90
2018-12-29T06:54:04.147Z,20.10
2018-12-29T06:56:33.369Z,18.97
2018-12-29T06:59:02.750Z,19.77
2018-12-29T07:01:32.023Z,18.47
2018-12-29T07:04:01.285Z,20.53
2018-12-29T07:06:30.519Z,19.63
2018-12-29T07:08:59.805Z,20.70
2018-12-29T07:11:29.129Z,21.63
2018-12-29T07:13:58.391Z,21.77
2018-12-29T07:16:27.695Z,23.20
2018-12-29T07:18:56.983Z,24.20
2018-12-29T07:21:26.273Z,24.17
2018-12-29T07:23:55.673Z,25.53
2018-12-29T07:26:25.003Z,24.80
2018-12-29T07:28:54.280Z,26.47
2018-12-29T07:31:23.677Z,25.10
2018-12-29T07:33:52.941Z,25.40
2018-12-29T07:36:22.267Z,23.43
2018-12-29T07:38:51.548Z,23.13
2018-12-29T07:41:20.835Z,22.87
2018-12-29T07:43:50.146Z,22.83
2018-12-29T07:46:19.553Z,22.10
2018-12-29T07:48:48.871Z,22.63
2018-12-29T07:51:18.167Z,21.57
2018-12-29T07:53:47.484Z,21.57
2018-12-29T07:56:16.846Z,19.73
2018-12-29T07:58:46.178Z,19.07
2018-12-29T08:01:15.452Z,20.37
2018-12-29T08:03:44.858Z,20.67
2018-12-29T08:06:14.214Z,19.90
2018-12-29T08:08:43.481Z,20.67
2018-12-29T08:11:12.786Z,20.20
2018-12-29T08:13:42.080Z,20.43
2018-12-29T08:16:11.412Z,22.37
2018-12-29T08:18:40.700Z,20.33
2018-12-29T08:21:09.998Z,20.33
2018-12-29T08:23:39.241Z,19.67
2018-12-29T08:26:08.590Z,19.63
2018-12-29T08:28:37.846Z,19.57
2018-12-29T08:31:07.159Z,18.83
2018-12-29T08:33:36.464Z,18.70
2018-12-29T08:36:05.738Z,19.43
2018-12-29T08:38:35.010Z,18.53
2018-12-29T08:41:04.288Z,18.37
2018-12-29T08:43:33.552Z,18.03
2018-12-29T08:46:02.864Z,18.57
2018-12-29T08:48:32.192Z,17.77
2018-12-29T08:51:01.604Z,17.00
2018-12-29T08:53:30.898Z,18.13
2018-12-29T08:56:00.168Z,17.63
2018-12-29T08:58:29.440Z,19.87
2018-12-29T09:00:58.703Z,21.53
2018-12-29T09:03:28.023Z,19.43
2018-12-29T09:05:57.279Z,19.20
2018-12-29T09:08:26.529Z,19.40
2018-12-29T09:10:55.788Z,20.17
2018-12-29T09:13:25.104Z,20.33
2018-12-29T09:15:54.429Z,19.90
2018-12-29T09:18:23.673Z,20.57
2018-12-29T09:20:53.040Z,19.60
2018-12-29T09:23:22.394Z,18.43
2018-12-29T09:25:51.690Z,19.97
2018-12-29T09:28:20.943Z,18.57
2018-12-29T09:30:50.235Z,19.20
2018-12-29T09:33:19.493Z,20.07
2018-12-29T09:35:48.799Z,19.67
2018-12-29T09:38:18.083Z,20.07
2018-12-29T09:40:47.345Z,20.00
2018-12-29T09:43:16.712Z,21.17
2018-12-29T09:45:45.956Z,21.20
2018-12-29T09:48:15.285Z,21.17
2018-12-29T09:50:44.598Z,20.83
2018-12-29T09:53:13.887Z,20.73
2018-12-29T09:55:43.160Z,20.33
2018-12-29T09:58:12.641Z,21.60
2018-12-29T10:00:41.910Z,20.10
2018-12-29T10:03:11.173Z,21.03
2018-12-29T10:05:40.502Z,20.07
2018-12-29T10:08:09.806Z,22.27
2018-12-29T10:10:39.101Z,19.80
2018-12-29T10:13:08.362Z,20.10
2018-12-29T10:15:37.681Z,19.67
2018-12-29T10:18:07.019Z,19.83
2018-12-29T10:20:36.319Z,19.57
2018-12-29T10:23:05.594Z,19.57
2018-12-29T10:25:34.874Z,19.53
2018-12-29T10:28:04.131Z,19.67
2018-12-29T10:30:33.441Z,19.97
2018-12-29T10:33:02.681Z,21.20
2018-12-29T10:35:32.088Z,20.53
2018-12-29T10:38:01.410Z,19.77
2018-12-29T10:40:30.677Z,19.27
2018-12-29T10:42:59.943Z,20.93
2018-12-29T10:45:29.328Z,21.17
2018-12-29T10:47:58.663Z,21.03
2018-12-29T10:50:27.956Z,23.13
2018-12-29T10:52:57.166Z,21.80
2018-12-29T10:55:26.545Z,23.03
2018-12-29T10:57:55.807Z,22.03
2018-12-29T11:00:25.092Z,21.60
2018-12-29T11:02:54.460Z,23.70
2018-12-29T11:05:23.726Z,22.30
2018-12-29T11:07:53.033Z,24.83
2018-12-29T11:10:22.340Z,22.77
2018-12-29T11:12:51.728Z,23.00
2018-12-29T11:15:21.056Z,21.77
2018-12-29T11:17:50.324Z,24.37
2018-12-29T11:20:19.665Z,24.57
2018-12-29T11:22:49.054Z,21.13
2018-12-29T11:25:18.386Z,23.20
2018-12-29T11:27:47.642Z,23.20
2018-12-29T11:30:16.954Z,22.07
2018-12-29T11:32:46.375Z,23.13
2018-12-29T11:35:15.760Z,22.27
2018-12-29T11:37:45.043Z,21.10
2018-12-29T11:40:14.317Z,22.83
2018-12-29T11:42:43.603Z,21.07
2018-12-29T11:45:13.050Z,22.37
2018-12-29T11:47:49.592Z,20.43
2018-12-29T11:50:11.660Z,21.63
2018-12-29T11:52:41.036Z,22.17
2018-12-29T11:55:10.304Z,23.33
2018-12-29T11:57:39.761Z,22.30
2018-12-29T12:00:09.690Z,22.47
2018-12-29T12:02:39.008Z,22.00
2018-12-29T12:05:08.278Z,23.07
2018-12-29T12:07:37.622Z,23.47
2018-12-29T12:10:06.984Z,23.17
2018-12-29T12:12:36.561Z,22.47
2018-12-29T12:15:06.110Z,22.27
2018-12-29T12:17:35.370Z,21.57
2018-12-29T12:20:05.178Z,21.77
2018-12-29T12:22:34.448Z,20.83
2018-12-29T12:25:03.774Z,22.97
2018-12-29T12:27:33.156Z,22.00
2018-12-29T12:30:02.449Z,22.53
2018-12-29T12:32:31.896Z,22.70
2018-12-29T12:35:01.272Z,22.67
2018-12-29T12:37:30.562Z,23.13
2018-12-29T12:39:59.904Z,20.97
2018-12-29T12:42:29.190Z,20.90
2018-12-29T12:44:58.638Z,19.77
2018-12-29T12:47:27.974Z,19.80
2018-12-29T12:49:57.658Z,19.10
2018-12-29T12:52:26.993Z,20.00
2018-12-29T12:54:56.362Z,18.87
2018-12-29T12:57:25.706Z,19.10
2018-12-29T12:59:55.068Z,18.97
2018-12-29T13:02:24.475Z,19.20
2018-12-29T13:04:54.374Z,19.57
2018-12-29T13:07:23.672Z,19.27
2018-12-29T13:09:52.983Z,18.40
2018-12-29T13:12:22.306Z,18.27
2018-12-29T13:14:51.586Z,18.77
2018-12-29T13:17:20.910Z,19.20
2018-12-29T13:19:50.210Z,18.37
2018-12-29T13:22:19.479Z,19.43
2018-12-29T13:24:48.814Z,20.00
2018-12-29T13:27:18.204Z,17.87
2018-12-29T13:29:47.526Z,19.60
2018-12-29T13:32:16.833Z,18.63
2018-12-29T13:34:46.439Z,20.80
2018-12-29T13:37:15.725Z,21.03
2018-12-29T13:39:45.131Z,20.87
2018-12-29T13:42:14.409Z,20.90
2018-12-29T13:44:43.739Z,20.07
2018-12-29T13:47:13.050Z,19.57
2018-12-29T13:49:42.339Z,19.93
2018-12-29T13:52:11.629Z,19.80
2018-12-29T13:54:41.135Z,21.13
2018-12-29T13:57:13.411Z,19.33
2018-12-29T13:59:42.660Z,21.63
2018-12-29T14:02:12.022Z,20.57
2018-12-29T14:04:41.266Z,20.10
2018-12-29T14:07:13.892Z,20.37
2018-12-29T14:09:43.161Z,18.50
2018-12-29T14:12:12.505Z,18.70
2018-12-29T14:14:44.671Z,20.17
2018-12-29T14:17:11.192Z,20.37
2018-12-29T14:19:40.467Z,21.97
2018-12-29T14:22:09.755Z,23.90
2018-12-29T14:24:39.018Z,23.73
2018-12-29T14:27:08.316Z,24.13
2018-12-29T14:29:37.680Z,24.03
2018-12-29T14:32:06.969Z,24.17
2018-12-29T14:34:36.273Z,23.30
2018-12-29T14:37:05.559Z,24.03
2018-12-29T14:39:35.024Z,25.43
2018-12-29T14:42:04.383Z,23.37
2018-12-29T14:44:33.703Z,22.83
2018-12-29T14:47:03.091Z,23.37
2018-12-29T14:49:32.522Z,22.17
2018-12-29T14:52:01.787Z,22.97
2018-12-29T14:54:31.391Z,22.17
2018-12-29T14:57:00.668Z,22.73
2018-12-29T14:59:29.952Z,22.13
2018-12-29T15:01:59.313Z,20.67
2018-12-29T15:04:28.601Z,21.23
2018-12-29T15:06:57.893Z,20.87
2018-12-29T15:09:27.335Z,19.40
2018-12-29T15:11:56.532Z,19.10
2018-12-29T15:14:25.802Z,19.40
2018-12-29T15:16:55.161Z,18.63
2018-12-29T15:19:24.508Z,18.40
2018-12-29T15:21:53.770Z,19.03
2018-12-29T15:24:23.103Z,16.10
2018-12-29T15:26:52.444Z,16.83
2018-12-29T15:29:21.856Z,16.63
2018-12-29T15:31:51.171Z,15.90
2018-12-29T15:34:20.520Z,17.57
2018-12-29T15:36:49.888Z,16.47
2018-12-29T15:39:19.171Z,17.60
2018-12-29T15:41:48.586Z,16.23
2018-12-29T15:44:17.937Z,18.40
2018-12-29T15:46:47.283Z,18.33
2018-12-29T15:49:16.622Z,18.30
2018-12-29T15:51:45.978Z,19.83
2018-12-29T15:54:15.251Z,19.67
2018-12-29T15:56:44.551Z,19.83
2018-12-29T15:59:13.898Z,21.03
2018-12-29T16:01:43.185Z,19.73
2018-12-29T16:04:12.452Z,19.30
2018-12-29T16:06:41.844Z,20.30
2018-12-29T16:09:11.170Z,21.57
2018-12-29T16:11:40.559Z,20.77
2018-12-29T16:14:09.869Z,20.10
2018-12-29T16:16:39.106Z,20.57
2018-12-29T16:19:08.476Z,20.60
2018-12-29T16:21:37.761Z,19.50
2018-12-29T16:24:07.077Z,18.50
2018-12-29T16:26:36.484Z,18.60
2018-12-29T16:29:05.839Z,19.30
2018-12-29T16:31:35.155Z,19.97
2018-12-29T16:34:04.478Z,19.43
2018-12-29T16:36:33.899Z,19.63
2018-12-29T16:39:03.176Z,21.93
2018-12-29T16:41:32.498Z,19.67
2018-12-29T16:44:01.778Z,20.87
2018-12-29T16:46:31.065Z,21.07
2018-12-29T16:49:06.783Z,21.13
2018-12-29T16:51:29.771Z,20.53
2018-12-29T16:53:59.068Z,18.63
2018-12-29T16:56:28.373Z,18.90
2018-12-29T16:58:57.664Z,18.40
2018-12-29T17:01:27.098Z,19.97
2018-12-29T17:03:56.393Z,19.17
2018-12-29T17:06:25.803Z,20.23
2018-12-29T17:08:55.126Z,17.90
2018-12-29T17:11:24.439Z,17.47
2018-12-29T17:13:53.772Z,15.90
2018-12-29T17:16:23.106Z,17.10
2018-12-29T17:18:52.401Z,16.63
2018-12-29T17:21:21.674Z,14.00
2018-12-29T17:23:50.964Z,12.83
2018-12-29T17:26:20.200Z,11.47
2018-12-29T17:28:49.538Z,10.00
2018-12-29T17:31:18.900Z,9.43
2018-12-29T17:33:48.184Z,9.87
2018-12-29T17:36:17.520Z,9.23
2018-12-29T17:38:46.824Z,9.33
2018-12-29T17:41:16.096Z,9.13
2018-12-29T17:43:45.517Z,7.77
2018-12-29T17:46:14.805Z,8.33
2018-12-29T17:48:44.066Z,8.63
2018-12-29T17:51:13.368Z,8.67
2018-12-29T17:53:47.987Z,10.00
2018-12-29T17:56:11.894Z,9.93
2018-12-29T17:58:41.160Z,10.70
2018-12-29T18:01:10.424Z,10.83
2018-12-29T18:03:39.713Z,11.03
2018-12-29T18:06:10.834Z,10.90
2018-12-29T18:08:38.664Z,12.63
2018-12-29T18:11:07.940Z,13.10
2018-12-29T18:13:37.335Z,13.43
2018-12-29T18:16:06.656Z,13.17
2018-12-29T18:18:35.934Z,13.70
2018-12-29T18:21:05.194Z,14.17
2018-12-29T18:23:34.514Z,13.73
2018-12-29T18:26:03.776Z,13.90
2018-12-29T18:28:33.066Z,14.63
2018-12-29T18:31:02.353Z,14.33
2018-12-29T18:33:37.181Z,16.50
2018-12-29T18:36:00.971Z,14.37
2018-12-29T18:38:30.305Z,14.93
2018-12-29T18:40:59.575Z,16.93
2018-12-29T18:43:28.845Z,16.47
2018-12-29T18:45:58.250Z,17.40
2018-12-29T18:48:27.569Z,17.60
2018-12-29T18:50:56.892Z,18.07
2018-12-29T18:53:26.200Z,17.83
2018-12-29T18:55:55.501Z,17.07
2018-12-29T18:58:24.774Z,17.13
2018-12-29T19:00:54.044Z,16.03
2018-12-29T19:03:23.289Z,18.70
2018-12-29T19:05:52.597Z,18.43
2018-12-29T19:08:21.882Z,18.13
2018-12-29T19:10:51.176Z,18.27
2018-12-29T19:13:20.545Z,19.20
2018-12-29T19:15:49.905Z,19.33
2018-12-29T19:18:19.224Z,21.00
2018-12-29T19:20:48.573Z,20.03
2018-12-29T19:23:17.875Z,19.97
2018-12-29T19:25:47.203Z,19.40
2018-12-29T19:28:16.492Z,21.17
2018-12-29T19:30:45.749Z,19.50
2018-12-29T19:33:15.094Z,20.03
2018-12-29T19:35:44.396Z,21.77
2018-12-29T19:38:13.688Z,21.13
2018-12-29T19:40:42.993Z,22.00
2018-12-29T19:43:12.331Z,22.73
2018-12-29T19:45:41.656Z,23.53
2018-12-29T19:48:10.970Z,22.77
2018-12-29T19:50:40.254Z,22.43
2018-12-29T19:53:09.535Z,22.83
2018-12-29T19:55:38.834Z,24.77
2018-12-29T19:58:08.130Z,23.33
2018-12-29T20:00:37.424Z,23.17
2018-12-29T20:03:06.686Z,20.83
2018-12-29T20:05:36.043Z,22.93
2018-12-29T20:08:05.335Z,20.93
2018-12-29T20:10:34.685Z,19.17
2018-12-29T20:13:03.979Z,20.73
2018-12-29T20:15:33.405Z,19.63
2018-12-29T20:18:02.687Z,20.93
2018-12-29T20:20:31.969Z,17.27
2018-12-29T20:23:01.239Z,19.07
2018-12-29T20:25:31.062Z,16.00
2018-12-29T20:28:00.500Z,17.90
2018-12-29T20:30:29.726Z,16.33
2018-12-29T20:32:59.304Z,17.30
2018-12-29T20:35:28.505Z,17.10
2018-12-29T20:37:57.868Z,16.67
2018-12-29T20:40:27.204Z,17.77
2018-12-29T20:42:56.557Z,16.23
2018-12-29T20:45:25.874Z,13.80
2018-12-29T20:47:55.192Z,11.07
2018-12-29T20:50:24.473Z,9.03
2018-12-29T20:52:53.811Z,8.00
2018-12-29T20:55:23.115Z,8.83
2018-12-29T20:57:52.444Z,9.07
2018-12-29T21:00:21.738Z,7.77
2018-12-29T21:02:51.354Z,6.53
2018-12-29T21:05:20.631Z,5.33
2018-12-29T21:07:49.972Z,3.43
2018-12-29T21:10:19.254Z,2.80
2018-12-29T21:12:48.679Z,2.43
2018-12-29T21:15:17.926Z,1.70
2018-12-29T21:17:47.356Z,2.20
2018-12-29T21:20:17.542Z,2.10
2018-12-29T21:22:46.255Z,2.10
2018-12-29T21:25:15.602Z,1.63
2018-12-29T21:27:44.898Z,1.90
2018-12-29T21:30:14.183Z,2.00
2018-12-29T21:32:43.493Z,2.60
2018-12-29T21:35:12.830Z,1.50
2018-12-29T21:37:42.108Z,1.73
2018-12-29T21:40:11.400Z,1.87
2018-12-29T21:42:40.696Z,1.83
2018-12-29T21:45:10.047Z,1.87
2018-12-29T21:47:39.414Z,2.13
2018-12-29T21:50:10.460Z,1.70
2018-12-29T21:52:38.008Z,2.13
2018-12-29T21:55:07.332Z,1.60
2018-12-29T21:57:36.620Z,1.70
2018-12-29T22:00:06.407Z,1.43
2018-12-29T22:02:35.667Z,2.00
2018-12-29T22:05:05.009Z,1.37
2018-12-29T22:07:34.281Z,2.07
2018-12-29T22:10:04.035Z,1.60
2018-12-29T22:12:33.336Z,1.27
2018-12-29T22:15:02.687Z,1.40
2018-12-29T22:17:31.991Z,1.40
2018-12-29T22:20:01.273Z,1.40
2018-12-29T22:22:30.499Z,1.70
2018-12-29T22:24:59.796Z,1.77
2018-12-29T22:27:29.202Z,1.70
2018-12-29T22:29:58.478Z,1.47
2018-12-29T22:32:27.805Z,1.40
2018-12-29T22:34:57.076Z,1.50
2018-12-29T22:37:26.406Z,1.60
2018-12-29T22:39:55.733Z,1.47
2018-12-29T22:42:24.965Z,2.03
2018-12-29T22:44:54.239Z,1.83
2018-12-29T22:47:23.601Z,1.60
2018-12-29T22:49:52.869Z,1.47
2018-12-29T22:52:22.222Z,1.53
2018-12-29T22:54:51.508Z,1.60
2018-12-29T22:57:20.853Z,1.80
2018-12-29T22:59:50.211Z,1.70
2018-12-29T23:02:20.029Z,1.70
2018-12-29T23:04:49.320Z,1.50
2018-12-29T23:07:18.650Z,2.17
2018-12-29T23:09:47.929Z,1.60
2018-12-29T23:12:17.253Z,1.70
2018-12-29T23:14:46.523Z,1.80
2018-12-29T23:17:16.243Z,1.90
2018-12-29T23:19:45.957Z,1.93
2018-12-29T23:22:14.863Z,1.50
2018-12-29T23:24:44.122Z,1.87
2018-12-29T23:27:13.449Z,1.97
2018-12-29T23:29:42.769Z,1.60
2018-12-29T23:32:12.038Z,1.30
2018-12-29T23:34:41.371Z,1.73
2018-12-29T23:37:10.655Z,1.33
2018-12-29T23:39:40.011Z,1.40
2018-12-29T23:42:09.239Z,1.73
2018-12-29T23:44:38.531Z,1.63
2018-12-29T23:47:07.852Z,1.70
2018-12-29T23:49:37.307Z,1.90
2018-12-29T23:52:06.576Z,1.93
2018-12-29T23:54:35.839Z,2.20
2018-12-29T23:57:05.173Z,1.57
2018-12-29T23:59:34.454Z,2.83
